createdAt,value
2022-11-20T00:00:40.612Z,30.47
2022-11-20T00:03:08.210Z,31.70
2022-11-20T00:05:34.792Z,28.50
2022-11-20T00:08:01.466Z,29.67
2022-11-20T00:10:28.179Z,29.80
2022-11-20T00:12:54.860Z,29.63
2022-11-20T00:15:21.408Z,30.60
2022-11-20T00:17:47.922Z,28.87
2022-11-20T00:20:14.612Z,30.47
2022-11-20T00:22:41.185Z,31.17
2022-11-20T00:25:07.910Z,30.60
2022-11-20T00:27:34.460Z,33.93
2022-11-20T00:30:01.096Z,31.03
2022-11-20T00:32:27.662Z,30.47
2022-11-20T00:34:54.210Z,30.53
2022-11-20T00:37:20.734Z,31.07
2022-11-20T00:39:47.361Z,31.20
2022-11-20T00:42:13.913Z,28.60
2022-11-20T00:44:40.558Z,29.70
2022-11-20T00:47:07.394Z,28.70
2022-11-20T00:49:33.999Z,30.03
2022-11-20T00:52:00.644Z,28.53
2022-11-20T00:54:27.149Z,30.60
2022-11-20T00:56:54.188Z,29.80
2022-11-20T00:59:21.157Z,28.90
2022-11-20T01:01:47.934Z,29.83
2022-11-20T01:04:14.492Z,30.03
2022-11-20T01:06:41.226Z,30.67
2022-11-20T01:09:10.378Z,28.13
2022-11-20T01:11:38.125Z,29.17
2022-11-20T01:14:05.937Z,26.73
2022-11-20T01:16:33.673Z,28.90
2022-11-20T01:19:01.266Z,28.97
2022-11-20T01:21:32.471Z,28.90
2022-11-20T01:23:59.398Z,31.13
2022-11-20T01:26:27.357Z,29.27
2022-11-20T01:28:54.376Z,30.00
2022-11-20T01:31:25.204Z,26.40
2022-11-20T01:33:53.171Z,28.90
2022-11-20T01:36:20.682Z,29.83
2022-11-20T01:38:47.441Z,29.10
2022-11-20T01:41:33.820Z,29.50
2022-11-20T01:44:00.738Z,29.00
2022-11-20T01:46:27.850Z,27.23
2022-11-20T01:49:05.629Z,25.13
2022-11-20T01:51:50.867Z,25.87
2022-11-20T01:54:20.145Z,28.47
2022-11-20T01:56:48.884Z,27.80
2022-11-20T01:59:18.060Z,26.60
2022-11-20T02:01:44.896Z,27.07
2022-11-20T02:04:11.865Z,28.00
2022-11-20T02:06:52.461Z,26.20
2022-11-20T02:09:19.307Z,26.60
2022-11-20T02:11:46.427Z,26.93
2022-11-20T02:14:13.171Z,29.63
2022-11-20T02:16:41.577Z,31.30
2022-11-20T02:19:10.868Z,26.60
2022-11-20T02:21:43.937Z,27.50
2022-11-20T02:24:14.799Z,27.53
2022-11-20T02:26:44.083Z,27.20
2022-11-20T02:29:10.827Z,30.30
2022-11-20T02:31:38.855Z,29.87
2022-11-20T02:34:05.396Z,27.03
2022-11-20T02:36:34.413Z,29.27
2022-11-20T02:39:00.970Z,28.90
2022-11-20T02:41:34.559Z,31.27
2022-11-20T02:44:01.456Z,28.07
2022-11-20T02:46:28.454Z,27.30
2022-11-20T02:48:55.231Z,30.67
2022-11-20T02:51:21.963Z,27.73
2022-11-20T02:53:48.512Z,27.60
2022-11-20T02:56:15.334Z,26.53
2022-11-20T02:58:41.963Z,26.03
2022-11-20T03:01:08.563Z,29.40
2022-11-20T03:03:35.135Z,26.90
2022-11-20T03:06:01.798Z,27.57
2022-11-20T03:08:29.233Z,28.97
2022-11-20T03:10:55.785Z,28.00
2022-11-20T03:13:22.503Z,32.10
2022-11-20T03:15:49.045Z,30.87
2022-11-20T03:18:15.723Z,29.00
2022-11-20T03:20:42.368Z,30.80
2022-11-20T03:23:09.072Z,29.63
2022-11-20T03:25:36.428Z,29.50
2022-11-20T03:28:03.008Z,31.97
2022-11-20T03:30:30.914Z,31.33
2022-11-20T03:32:57.737Z,29.67
2022-11-20T03:35:24.361Z,32.00
2022-11-20T03:37:51.009Z,29.00
2022-11-20T03:40:17.536Z,31.13
2022-11-20T03:42:47.228Z,29.87
2022-11-20T03:45:18.073Z,33.53
2022-11-20T03:47:44.789Z,32.23
2022-11-20T03:50:13.382Z,31.17
2022-11-20T03:52:40.212Z,31.77
2022-11-20T03:55:07.464Z,33.00
2022-11-20T03:57:34.169Z,31.40
2022-11-20T04:00:00.847Z,29.30
2022-11-20T04:02:27.380Z,31.20
2022-11-20T04:04:53.999Z,30.97
2022-11-20T04:07:20.607Z,32.63
2022-11-20T04:09:47.102Z,32.20
2022-11-20T04:12:13.654Z,30.97
2022-11-20T04:14:40.385Z,30.43
2022-11-20T04:17:06.918Z,32.00
2022-11-20T04:19:33.650Z,28.83
2022-11-20T04:22:00.287Z,30.37
2022-11-20T04:24:27.131Z,32.27
2022-11-20T04:26:53.707Z,30.07
2022-11-20T04:29:20.487Z,32.23
2022-11-20T04:31:47.234Z,32.90
2022-11-20T04:34:14.073Z,29.23
2022-11-20T04:36:40.597Z,32.47
2022-11-20T04:39:07.598Z,31.07
2022-11-20T04:41:35.669Z,31.93
2022-11-20T04:44:04.341Z,30.43
2022-11-20T04:46:32.520Z,29.10
2022-11-20T04:49:00.051Z,28.30
2022-11-20T04:51:26.773Z,33.03
2022-11-20T04:53:53.351Z,30.80
2022-11-20T04:56:19.962Z,30.50
2022-11-20T04:58:46.581Z,30.43
2022-11-20T05:01:14.793Z,31.40
2022-11-20T05:03:42.692Z,31.70
2022-11-20T05:06:10.332Z,34.57
2022-11-20T05:08:36.874Z,28.93
2022-11-20T05:11:08.027Z,28.27
2022-11-20T05:13:34.626Z,32.50
2022-11-20T05:16:05.776Z,29.50
2022-11-20T05:18:32.657Z,29.60
2022-11-20T05:20:59.667Z,27.47
2022-11-20T05:23:26.556Z,32.30
2022-11-20T05:25:58.937Z,28.47
2022-11-20T05:28:26.449Z,26.73
2022-11-20T05:30:53.258Z,28.07
2022-11-20T05:33:19.848Z,27.67
2022-11-20T05:35:46.614Z,29.30
2022-11-20T05:38:13.210Z,29.80
2022-11-20T05:40:39.799Z,28.30
2022-11-20T05:43:06.388Z,31.67
2022-11-20T05:45:32.969Z,29.30
2022-11-20T05:48:01.162Z,30.53
2022-11-20T05:50:28.309Z,30.93
2022-11-20T05:52:54.965Z,30.40
2022-11-20T05:55:21.827Z,32.27
2022-11-20T05:57:48.411Z,30.27
2022-11-20T06:00:15.258Z,28.83
2022-11-20T06:02:41.902Z,31.47
2022-11-20T06:05:08.771Z,33.10
2022-11-20T06:07:35.319Z,31.70
2022-11-20T06:10:01.929Z,29.60
2022-11-20T06:12:28.421Z,29.83
2022-11-20T06:14:55.006Z,30.93
2022-11-20T06:17:21.690Z,31.17
2022-11-20T06:19:48.263Z,29.47
2022-11-20T06:22:14.807Z,29.40
2022-11-20T06:24:41.439Z,29.40
2022-11-20T06:27:07.945Z,27.93
2022-11-20T06:29:34.543Z,27.80
2022-11-20T06:32:01.330Z,30.40
2022-11-20T06:34:28.518Z,30.90
2022-11-20T06:36:55.278Z,29.50
2022-11-20T06:39:22.107Z,30.00
2022-11-20T06:41:48.904Z,27.90
2022-11-20T06:44:15.516Z,29.90
2022-11-20T06:46:42.003Z,30.00
2022-11-20T06:49:08.591Z,28.30
2022-11-20T06:51:35.064Z,26.63
2022-11-20T06:54:02.059Z,30.47
2022-11-20T06:56:29.141Z,32.17
2022-11-20T06:58:55.637Z,33.77
2022-11-20T07:01:22.408Z,38.53
2022-11-20T07:03:54.203Z,36.70
2022-11-20T07:06:21.281Z,34.30
2022-11-20T07:08:48.045Z,38.40
2022-11-20T07:11:14.900Z,47.23
2022-11-20T07:13:41.455Z,44.90
2022-11-20T07:16:08.685Z,43.00
2022-11-20T07:18:35.463Z,39.60
2022-11-20T07:21:02.761Z,43.50
2022-11-20T07:23:29.302Z,43.77
2022-11-20T07:25:55.896Z,44.60
2022-11-20T07:28:22.463Z,43.33
2022-11-20T07:30:52.592Z,45.10
2022-11-20T07:33:19.526Z,44.80
2022-11-20T07:35:46.124Z,43.13
2022-11-20T07:38:12.954Z,39.53
2022-11-20T07:40:39.522Z,47.23
2022-11-20T07:43:06.107Z,43.83
2022-11-20T07:45:32.601Z,40.73
2022-11-20T07:47:59.150Z,42.30
2022-11-20T07:50:25.742Z,38.90
2022-11-20T07:52:53.151Z,45.37
2022-11-20T07:55:19.688Z,41.00
2022-11-20T07:57:46.439Z,40.33
2022-11-20T08:00:13.541Z,36.53
2022-11-20T08:02:40.902Z,36.80
2022-11-20T08:05:08.452Z,38.17
2022-11-20T08:07:39.037Z,36.93
2022-11-20T08:10:06.085Z,35.43
2022-11-20T08:12:51.309Z,51.40
2022-11-20T08:15:17.861Z,46.63
2022-11-20T08:17:56.754Z,44.17
2022-11-20T08:20:31.082Z,28.73
2022-11-20T08:23:01.784Z,34.57
2022-11-20T08:25:29.132Z,36.17
2022-11-20T08:28:00.135Z,32.63
2022-11-20T08:30:27.385Z,35.63
2022-11-20T08:32:54.575Z,33.47
2022-11-20T08:35:24.179Z,32.77
2022-11-20T08:37:50.866Z,36.90
2022-11-20T08:40:19.784Z,33.50
2022-11-20T08:42:47.174Z,35.00
2022-11-20T08:45:14.065Z,36.00
2022-11-20T08:47:40.618Z,33.80
2022-11-20T08:50:07.635Z,33.17
2022-11-20T08:52:38.492Z,30.97
2022-11-20T08:55:06.666Z,29.93
2022-11-20T08:57:33.834Z,31.03
2022-11-20T09:00:07.755Z,34.17
2022-11-20T09:02:34.954Z,29.67
2022-11-20T09:05:03.384Z,30.30
2022-11-20T09:07:30.406Z,26.07
2022-11-20T09:10:16.804Z,26.03
2022-11-20T09:12:43.647Z,22.97
2022-11-20T09:15:10.549Z,21.67
2022-11-20T09:17:37.237Z,26.23
2022-11-20T09:20:05.043Z,24.67
2022-11-20T09:22:31.585Z,23.57
2022-11-20T09:24:58.171Z,26.80
2022-11-20T09:27:25.030Z,24.17
2022-11-20T09:29:51.772Z,26.47
2022-11-20T09:32:18.325Z,25.90
2022-11-20T09:34:44.826Z,23.93
2022-11-20T09:37:11.389Z,27.73
2022-11-20T09:39:39.896Z,22.37
2022-11-20T09:42:14.404Z,25.33
2022-11-20T09:44:54.754Z,25.70
2022-11-20T09:47:40.420Z,26.43
2022-11-20T09:50:26.036Z,26.23
2022-11-20T09:52:52.760Z,24.20
2022-11-20T09:55:19.804Z,28.30
2022-11-20T09:57:48.046Z,26.10
2022-11-20T10:00:15.760Z,24.73
2022-11-20T10:02:43.104Z,27.13
2022-11-20T10:05:09.763Z,26.10
2022-11-20T10:07:44.051Z,24.63
2022-11-20T10:10:18.283Z,27.00
2022-11-20T10:13:02.234Z,27.87
2022-11-20T10:15:42.224Z,32.17
2022-11-20T10:18:14.930Z,27.90
2022-11-20T10:20:53.873Z,26.57
2022-11-20T10:23:39.429Z,29.80
2022-11-20T10:26:18.640Z,187.97
2022-11-20T10:29:06.030Z,38.13
2022-11-20T10:31:42.464Z,33.57
2022-11-20T10:34:24.412Z,114.40
2022-11-20T10:36:59.163Z,62.60
2022-11-20T10:39:31.030Z,36.13
2022-11-20T10:41:57.677Z,40.50
2022-11-20T10:44:47.308Z,93.43
2022-11-20T10:47:18.257Z,219.87
2022-11-20T10:49:49.447Z,92.53
2022-11-20T10:52:19.156Z,32.47
2022-11-20T10:55:04.935Z,31.73
2022-11-20T10:57:31.532Z,30.17
2022-11-20T11:00:12.245Z,25.63
2022-11-20T11:02:55.926Z,27.40
2022-11-20T11:05:31.155Z,26.87
2022-11-20T11:07:58.659Z,26.40
2022-11-20T11:10:28.996Z,26.80
2022-11-20T11:12:55.654Z,24.97
2022-11-20T11:15:26.711Z,26.43
2022-11-20T11:17:53.693Z,26.20
2022-11-20T11:20:21.613Z,25.30
2022-11-20T11:22:58.380Z,27.43
2022-11-20T11:25:34.510Z,25.57
2022-11-20T11:28:19.187Z,26.40
2022-11-20T11:30:45.815Z,29.47
2022-11-20T11:33:19.393Z,27.00
2022-11-20T11:35:49.975Z,64.50
2022-11-20T11:38:19.937Z,28.37
2022-11-20T11:40:47.636Z,26.77
2022-11-20T11:43:43.173Z,28.67
2022-11-20T11:46:23.862Z,27.57
2022-11-20T11:49:02.775Z,58.23
2022-11-20T11:51:47.541Z,25.83
2022-11-20T11:54:20.597Z,25.07
2022-11-20T11:56:47.325Z,21.70
2022-11-20T11:59:17.592Z,17.30
2022-11-20T12:01:48.952Z,27.10
2022-11-20T12:04:41.476Z,24.33
2022-11-20T12:07:44.408Z,26.80
2022-11-20T12:10:01.315Z,30.50
2022-11-20T12:12:43.763Z,30.63
2022-11-20T12:15:17.157Z,29.03
2022-11-20T12:17:43.765Z,29.37
2022-11-20T12:20:16.689Z,31.60
2022-11-20T12:22:51.452Z,30.20
2022-11-20T12:25:21.398Z,27.53
2022-11-20T12:28:02.101Z,29.97
2022-11-20T12:30:29.104Z,32.53
2022-11-20T12:33:14.708Z,30.07
2022-11-20T12:35:59.867Z,29.47
2022-11-20T12:38:29.689Z,26.50
2022-11-20T12:41:50.739Z,26.27
2022-11-20T12:44:43.965Z,28.97
2022-11-20T12:47:29.217Z,30.80
2022-11-20T12:49:58.977Z,28.93
2022-11-20T12:52:48.840Z,26.60
2022-11-20T12:55:18.693Z,23.67
2022-11-20T12:57:51.750Z,23.40
2022-11-20T13:00:22.210Z,23.77
2022-11-20T13:03:08.936Z,23.53
2022-11-20T13:05:44.364Z,27.00
2022-11-20T13:08:28.630Z,28.20
2022-11-20T13:11:07.581Z,27.97
2022-11-20T13:13:41.362Z,29.97
2022-11-20T13:16:14.339Z,29.90
2022-11-20T13:18:46.220Z,28.90
2022-11-20T13:21:17.117Z,30.20
2022-11-20T13:23:43.979Z,27.30
2022-11-20T13:26:26.169Z,33.43
2022-11-20T13:29:11.661Z,32.53
2022-11-20T13:31:41.307Z,30.13
2022-11-20T13:34:08.153Z,29.73
2022-11-20T13:36:37.438Z,26.20
2022-11-20T13:39:04.322Z,25.67
2022-11-20T13:41:36.584Z,29.63
2022-11-20T13:44:12.271Z,27.30
2022-11-20T13:46:44.973Z,27.80
2022-11-20T13:49:18.574Z,26.33
2022-11-20T13:51:47.668Z,25.20
2022-11-20T13:54:29.610Z,28.67
2022-11-20T13:57:15.070Z,26.20
2022-11-20T13:59:54.620Z,25.80
2022-11-20T14:02:22.631Z,25.53
2022-11-20T14:04:50.809Z,29.60
2022-11-20T14:07:18.851Z,29.70
2022-11-20T14:09:53.159Z,30.80
2022-11-20T14:12:21.404Z,28.17
2022-11-20T14:14:49.578Z,30.57
2022-11-20T14:17:22.096Z,27.87
2022-11-20T14:19:50.335Z,25.67
2022-11-20T14:22:20.069Z,27.17
2022-11-20T14:24:47.118Z,27.83
2022-11-20T14:27:21.560Z,27.43
2022-11-20T14:29:50.238Z,30.03
2022-11-20T14:32:20.954Z,28.73
2022-11-20T14:34:48.944Z,27.57
2022-11-20T14:37:23.769Z,29.70
2022-11-20T14:39:52.843Z,26.00
2022-11-20T14:42:21.749Z,25.80
2022-11-20T14:44:48.936Z,28.43
2022-11-20T14:47:18.541Z,32.20
2022-11-20T14:49:45.671Z,31.13
2022-11-20T14:52:14.935Z,32.80
2022-11-20T14:54:48.667Z,24.73
2022-11-20T14:57:24.440Z,24.83
2022-11-20T14:59:51.154Z,25.23
2022-11-20T15:02:17.891Z,24.70
2022-11-20T15:04:47.632Z,23.33
2022-11-20T15:07:26.119Z,25.40
2022-11-20T15:10:05.221Z,23.20
2022-11-20T15:12:33.150Z,21.70
2022-11-20T15:15:01.171Z,17.70
2022-11-20T15:17:28.008Z,16.83
2022-11-20T15:19:55.652Z,13.77
2022-11-20T15:22:22.288Z,13.37
2022-11-20T15:24:48.836Z,12.90
2022-11-20T15:27:15.481Z,13.23
2022-11-20T15:29:42.618Z,14.27
2022-11-20T15:32:13.371Z,12.10
2022-11-20T15:34:40.602Z,7.17
2022-11-20T15:37:07.353Z,10.23
2022-11-20T15:39:34.094Z,8.07
2022-11-20T15:42:00.800Z,9.37
2022-11-20T15:44:27.570Z,11.10
2022-11-20T15:46:54.324Z,10.57
2022-11-20T15:49:22.722Z,13.93
2022-11-20T15:51:50.067Z,14.40
2022-11-20T15:54:19.157Z,13.87
2022-11-20T15:56:45.875Z,14.47
2022-11-20T15:59:13.201Z,14.50
2022-11-20T16:01:39.950Z,13.00
2022-11-20T16:04:10.636Z,11.13
2022-11-20T16:06:37.376Z,12.27
2022-11-20T16:09:04.316Z,11.70
2022-11-20T16:11:31.059Z,15.00
2022-11-20T16:14:16.342Z,14.97
2022-11-20T16:16:45.218Z,15.70
2022-11-20T16:19:13.006Z,28.50
2022-11-20T16:21:42.294Z,36.97
2022-11-20T16:24:10.579Z,25.60
2022-11-20T16:26:37.547Z,11.67
2022-11-20T16:29:05.980Z,6.97
2022-11-20T16:31:33.091Z,9.00
2022-11-20T16:34:00.675Z,5.03
2022-11-20T16:36:28.572Z,6.90
2022-11-20T16:38:56.339Z,10.30
2022-11-20T16:41:23.575Z,3.90
2022-11-20T16:44:00.483Z,4.80
2022-11-20T16:46:28.655Z,5.10
2022-11-20T16:49:05.050Z,5.40
2022-11-20T16:51:34.354Z,10.87
2022-11-20T16:54:08.852Z,4.80
2022-11-20T16:56:37.778Z,4.43
2022-11-20T16:59:04.588Z,8.80
2022-11-20T17:01:31.658Z,4.70
2022-11-20T17:04:02.325Z,3.90
2022-11-20T17:06:30.157Z,4.03
2022-11-20T17:08:57.269Z,4.30
2022-11-20T17:11:24.139Z,3.70
2022-11-20T17:13:51.078Z,2.10
2022-11-20T17:16:19.158Z,1.00
2022-11-20T17:18:46.173Z,1.67
2022-11-20T17:21:13.362Z,2.57
2022-11-20T17:23:44.240Z,1.70
2022-11-20T17:26:14.351Z,2.80
2022-11-20T17:28:41.505Z,1.87
2022-11-20T17:31:10.213Z,3.60
2022-11-20T17:33:37.737Z,3.97
2022-11-20T17:36:05.121Z,5.17
2022-11-20T17:38:32.242Z,4.87
2022-11-20T17:41:25.503Z,5.10
2022-11-20T17:44:02.962Z,5.10
2022-11-20T17:46:34.182Z,6.90
2022-11-20T17:49:01.860Z,5.80
2022-11-20T17:51:30.335Z,7.80
2022-11-20T17:54:01.198Z,9.47
2022-11-20T17:56:54.753Z,8.10
2022-11-20T17:59:21.686Z,6.70
2022-11-20T18:01:51.372Z,8.70
2022-11-20T18:04:18.364Z,8.80
2022-11-20T18:06:45.058Z,8.20
2022-11-20T18:09:12.190Z,8.63
2022-11-20T18:11:42.723Z,9.00
2022-11-20T18:14:32.479Z,8.33
2022-11-20T18:17:01.227Z,7.60
2022-11-20T18:19:32.452Z,10.97
2022-11-20T18:22:01.392Z,10.13
2022-11-20T18:24:28.221Z,7.60
2022-11-20T18:26:54.782Z,7.20
2022-11-20T18:29:21.882Z,5.20
2022-11-20T18:31:49.380Z,8.10
2022-11-20T18:34:17.941Z,7.10
2022-11-20T18:36:45.435Z,8.00
2022-11-20T18:39:12.647Z,7.77
2022-11-20T18:41:58.136Z,7.10
2022-11-20T18:44:44.997Z,5.27
2022-11-20T18:47:14.944Z,5.07
2022-11-20T18:49:55.082Z,7.00
2022-11-20T18:52:23.218Z,6.10
2022-11-20T18:54:53.193Z,7.43
2022-11-20T18:57:20.921Z,5.50
2022-11-20T18:59:48.040Z,7.43
2022-11-20T19:02:18.618Z,6.27
2022-11-20T19:04:45.302Z,5.03
2022-11-20T19:07:12.269Z,5.63
2022-11-20T19:09:39.864Z,6.60
2022-11-20T19:12:07.446Z,7.20
2022-11-20T19:14:34.188Z,6.33
2022-11-20T19:17:00.965Z,5.10
2022-11-20T19:19:27.647Z,6.80
2022-11-20T19:21:54.506Z,6.27
2022-11-20T19:24:21.379Z,5.40
2022-11-20T19:26:48.139Z,5.57
2022-11-20T19:29:16.276Z,4.90
2022-11-20T19:31:43.333Z,5.63
2022-11-20T19:34:09.984Z,4.23
2022-11-20T19:36:43.187Z,4.80
2022-11-20T19:39:11.941Z,4.43
2022-11-20T19:41:39.275Z,4.83
2022-11-20T19:44:11.053Z,4.40
2022-11-20T19:46:38.426Z,6.20
2022-11-20T19:49:06.615Z,5.00
2022-11-20T19:51:34.480Z,5.10
2022-11-20T19:54:01.641Z,4.23
2022-11-20T19:56:29.294Z,5.70
2022-11-20T19:58:56.433Z,4.70
2022-11-20T20:01:24.666Z,4.93
2022-11-20T20:03:51.360Z,4.93
2022-11-20T20:06:20.518Z,5.00
2022-11-20T20:08:47.678Z,4.50
2022-11-20T20:11:15.980Z,5.20
2022-11-20T20:13:44.216Z,6.83
2022-11-20T20:16:11.735Z,3.90
2022-11-20T20:18:41.316Z,4.07
2022-11-20T20:21:09.207Z,4.90
2022-11-20T20:23:36.132Z,3.77
2022-11-20T20:26:03.668Z,4.40
2022-11-20T20:28:30.859Z,4.47
2022-11-20T20:30:57.772Z,4.37
2022-11-20T20:33:24.530Z,6.37
2022-11-20T20:35:51.281Z,3.33
2022-11-20T20:38:19.111Z,3.87
2022-11-20T20:40:49.667Z,2.27
2022-11-20T20:43:17.147Z,4.27
2022-11-20T20:45:48.034Z,3.67
2022-11-20T20:48:18.944Z,3.90
2022-11-20T20:51:02.737Z,2.90
2022-11-20T20:53:30.773Z,4.00
2022-11-20T20:56:01.777Z,4.00
2022-11-20T20:58:30.227Z,3.50
2022-11-20T21:01:17.250Z,3.23
2022-11-20T21:03:44.247Z,3.37
2022-11-20T21:06:11.981Z,3.00
2022-11-20T21:08:40.733Z,4.00
2022-11-20T21:11:10.019Z,3.50
2022-11-20T21:13:39.782Z,4.90
2022-11-20T21:16:06.763Z,4.00
2022-11-20T21:18:33.906Z,3.97
2022-11-20T21:21:19.952Z,3.30
2022-11-20T21:23:47.854Z,5.10
2022-11-20T21:26:15.961Z,4.90
2022-11-20T21:28:42.752Z,4.50
2022-11-20T21:31:10.914Z,3.77
2022-11-20T21:33:43.906Z,4.63
2022-11-20T21:36:11.694Z,4.20
2022-11-20T21:38:38.659Z,5.77
2022-11-20T21:41:06.310Z,6.23
2022-11-20T21:43:33.041Z,4.23
2022-11-20T21:46:03.970Z,6.10
2022-11-20T21:48:31.175Z,6.27
2022-11-20T21:51:07.062Z,4.67
2022-11-20T21:53:33.946Z,5.80
2022-11-20T21:56:00.785Z,3.70
2022-11-20T21:58:27.541Z,4.60
2022-11-20T22:00:54.281Z,5.00
2022-11-20T22:03:21.208Z,5.23
2022-11-20T22:05:57.180Z,5.13
2022-11-20T22:08:24.669Z,5.40
2022-11-20T22:10:55.675Z,5.23
2022-11-20T22:13:41.755Z,6.40
2022-11-20T22:16:08.826Z,6.17
2022-11-20T22:18:35.874Z,6.97
2022-11-20T22:21:06.991Z,7.80
2022-11-20T22:23:34.282Z,6.20
2022-11-20T22:26:05.535Z,5.43
2022-11-20T22:28:32.889Z,5.00
2022-11-20T22:31:02.771Z,5.27
2022-11-20T22:33:30.240Z,5.37
2022-11-20T22:36:04.471Z,5.43
2022-11-20T22:38:36.404Z,5.57
2022-11-20T22:41:06.823Z,5.67
2022-11-20T22:43:33.820Z,4.93
2022-11-20T22:46:07.586Z,6.77
2022-11-20T22:48:35.106Z,6.40
2022-11-20T22:51:02.368Z,5.93
2022-11-20T22:53:29.101Z,4.70
2022-11-20T22:55:55.781Z,4.47
2022-11-20T22:58:22.497Z,5.27
2022-11-20T23:00:49.179Z,4.43
2022-11-20T23:03:15.749Z,5.00
2022-11-20T23:05:42.365Z,6.00
2022-11-20T23:08:09.004Z,5.50
2022-11-20T23:10:35.601Z,4.03
2022-11-20T23:13:02.288Z,5.40
2022-11-20T23:15:31.289Z,5.70
2022-11-20T23:17:57.934Z,6.67
2022-11-20T23:20:24.514Z,6.03
2022-11-20T23:22:51.143Z,6.33
2022-11-20T23:25:18.926Z,6.20
2022-11-20T23:27:45.694Z,5.57
2022-11-20T23:30:12.446Z,5.57
2022-11-20T23:32:38.992Z,6.60
2022-11-20T23:35:05.618Z,6.80
2022-11-20T23:40:13.450Z,5.60
2022-11-20T23:43:00.233Z,6.03
2022-11-20T23:45:26.915Z,5.60
2022-11-20T23:47:53.508Z,5.60
2022-11-20T23:50:20.181Z,5.70
2022-11-20T23:52:46.802Z,5.43
2022-11-20T23:55:13.552Z,6.90
2022-11-20T23:57:40.219Z,6.50
